Time;durP1;ratioP1;P1;durP2;ratioP2;P2;SDS_P1;SDS_P2;PMS_P1;PMS_P2;Temp;Humidity;BMP_temperature;BMP_pressure;BME280_temperature;BME280_humidity;BME280_pressure;Samples;Min_cycle;Max_cycle;Signal;HPM_P1;HPM_P2
2023/06/17 00:00:07;;;;;;;9.90;6.22;;;27.40;99.90;;;;;;1868254;75;21133;-78
2023/06/17 00:02:36;;;;;;;8.58;6.28;;;27.40;99.90;;;;;;1896225;73;21099;-80
2023/06/17 00:05:10;;;;;;;10.82;5.97;;;27.40;99.90;;;;;;1859758;75;21070;-77
2023/06/17 00:07:42;;;;;;;11.90;6.35;;;27.40;99.90;;;;;;1871257;75;21141;-76
2023/06/17 00:10:14;;;;;;;7.08;5.62;;;27.40;99.90;;;;;;1888716;74;21672;-75
2023/06/17 00:12:48;;;;;;;9.78;5.53;;;27.50;99.90;;;;;;1903127;73;21699;-79
2023/06/17 00:15:20;;;;;;;9.83;6.05;;;27.50;99.90;;;;;;1897329;73;21197;-78
2023/06/17 00:17:52;;;;;;;8.35;5.35;;;27.50;99.90;;;;;;1871005;74;21220;-77
2023/06/17 00:20:27;;;;;;;10.13;5.40;;;27.60;99.90;;;;;;1897556;73;21209;-80
2023/06/17 00:22:59;;;;;;;7.30;5.33;;;27.60;99.90;;;;;;1898848;74;21135;-81
2023/06/17 00:25:36;;;;;;;10.78;7.17;;;27.60;99.90;;;;;;1894551;74;21562;-80
2023/06/17 00:28:10;;;;;;;7.60;5.75;;;27.70;99.90;;;;;;1903683;74;21082;-79
2023/06/17 00:30:41;;;;;;;9.05;6.20;;;27.70;99.90;;;;;;1900199;74;21111;-78
2023/06/17 00:33:15;;;;;;;9.18;6.10;;;27.80;99.90;;;;;;1875453;75;21157;-80
2023/06/17 00:35:48;;;;;;;8.63;5.65;;;27.80;99.90;;;;;;1897539;74;21142;-81
2023/06/17 00:38:21;;;;;;;15.70;6.22;;;27.80;99.90;;;;;;1904609;74;21647;-78
2023/06/17 00:40:53;;;;;;;8.20;5.67;;;27.90;99.90;;;;;;1897714;74;21193;-79
2023/06/17 00:43:30;;;;;;;10.63;6.33;;;27.90;99.90;;;;;;1900708;74;21143;-76
2023/06/17 00:46:02;;;;;;;8.43;5.87;;;27.90;99.90;;;;;;1897350;74;21602;-77
2023/06/17 00:48:35;;;;;;;9.78;5.75;;;28.00;99.90;;;;;;1895278;73;21111;-78
2023/06/17 00:51:11;;;;;;;11.38;6.50;;;28.00;99.90;;;;;;1906860;73;21144;-78
2023/06/17 00:53:45;;;;;;;12.40;7.53;;;28.00;99.90;;;;;;1909815;73;21072;-78
2023/06/17 00:56:17;;;;;;;9.88;6.62;;;28.10;99.90;;;;;;1905188;74;21173;-78
2023/06/17 00:58:49;;;;;;;8.68;6.20;;;28.20;99.90;;;;;;1886513;75;21092;-78
2023/06/17 01:01:21;;;;;;;12.20;5.97;;;28.20;99.90;;;;;;1900429;74;21131;-78
2023/06/17 01:04:00;;;;;;;12.63;7.12;;;28.20;99.90;;;;;;1894584;74;21154;-79
2023/06/17 01:06:37;;;;;;;13.08;6.17;;;28.20;99.90;;;;;;1893407;75;21143;-77
2023/06/17 01:09:14;;;;;;;17.62;7.40;;;28.30;99.90;;;;;;1903105;75;21197;-77
2023/06/17 01:11:46;;;;;;;16.77;6.70;;;28.30;99.90;;;;;;1894803;73;21127;-77
2023/06/17 01:14:19;;;;;;;13.83;7.20;;;28.30;99.90;;;;;;1898306;74;21142;-77
2023/06/17 01:16:54;;;;;;;12.73;6.12;;;28.30;99.90;;;;;;1898634;74;21090;-77
2023/06/17 01:19:28;;;;;;;12.03;6.20;;;28.30;99.90;;;;;;1875434;75;21143;-76
2023/06/17 01:22:00;;;;;;;18.15;6.37;;;28.30;99.90;;;;;;1847591;76;21140;-78
2023/06/17 01:24:33;;;;;;;25.82;8.88;;;28.40;99.90;;;;;;1876062;73;21181;-78
2023/06/17 01:27:05;;;;;;;26.57;9.85;;;28.40;99.90;;;;;;1861482;76;21258;-78
2023/06/17 01:29:37;;;;;;;28.05;8.03;;;28.50;99.90;;;;;;1853469;77;21131;-77
2023/06/17 01:32:09;;;;;;;20.55;5.90;;;28.50;99.90;;;;;;1881448;74;21440;-77
2023/06/17 01:34:45;;;;;;;34.33;8.10;;;28.50;99.90;;;;;;1879589;75;21115;-80
2023/06/17 01:37:18;;;;;;;17.67;5.42;;;28.50;99.90;;;;;;1871232;75;21119;-78
2023/06/17 01:39:54;;;;;;;17.55;5.22;;;28.60;99.90;;;;;;1877611;74;21178;-78
2023/06/17 01:42:34;;;;;;;8.85;4.40;;;28.60;99.90;;;;;;1863890;75;21115;-78
2023/06/17 01:45:09;;;;;;;19.25;6.50;;;28.60;99.90;;;;;;1881568;75;21142;-76
2023/06/17 01:47:41;;;;;;;8.13;4.42;;;28.60;99.90;;;;;;1874953;75;21526;-77
2023/06/17 01:50:18;;;;;;;9.05;4.25;;;28.60;99.90;;;;;;1877443;75;21200;-77
2023/06/17 01:52:49;;;;;;;9.13;4.80;;;28.60;99.90;;;;;;1901326;74;21283;-77
2023/06/17 01:55:21;;;;;;;17.20;5.30;;;28.60;99.90;;;;;;1875920;75;21123;-77
2023/06/17 01:57:53;;;;;;;24.95;7.55;;;28.70;99.90;;;;;;1850533;75;21123;-76
2023/06/17 02:00:26;;;;;;;10.72;4.78;;;28.70;99.90;;;;;;1891868;73;21123;-79
2023/06/17 02:02:59;;;;;;;19.82;5.67;;;28.80;99.90;;;;;;1896799;73;21238;-76
2023/06/17 02:05:30;;;;;;;12.25;4.67;;;29.00;99.90;;;;;;1870215;75;21096;-77
2023/06/17 02:08:05;;;;;;;13.65;4.65;;;29.10;99.90;;;;;;1898226;74;21562;-78
2023/06/17 02:10:36;;;;;;;6.80;4.08;;;29.30;99.90;;;;;;1907589;74;21114;-77
2023/06/17 02:13:10;;;;;;;5.92;3.87;;;29.50;99.90;;;;;;1905593;75;21128;-77
2023/06/17 02:15:42;;;;;;;8.90;4.58;;;29.60;99.90;;;;;;1905633;73;21661;-79
2023/06/17 02:18:18;;;;;;;17.83;6.30;;;29.60;99.90;;;;;;1902450;73;21142;-80
2023/06/17 02:20:50;;;;;;;11.35;4.28;;;29.80;99.90;;;;;;1900242;73;21127;-80
2023/06/17 02:23:21;;;;;;;11.88;4.05;;;29.80;99.90;;;;;;1876080;75;21072;-77
2023/06/17 02:28:45;;;;;;;17.55;6.08;;;30.00;99.90;;;;;;1829473;76;21128;-78
2023/06/17 02:31:17;;;;;;;19.27;5.60;;;30.10;99.90;;;;;;1801960;78;21243;-78
2023/06/17 02:33:50;;;;;;;19.50;5.80;;;30.20;99.90;;;;;;1843634;76;21115;-77
2023/06/17 02:36:23;;;;;;;11.38;4.97;;;30.30;99.90;;;;;;1869073;76;21095;-77
2023/06/17 02:38:56;;;;;;;16.25;6.20;;;30.40;99.90;;;;;;1865073;74;21120;-76
2023/06/17 02:41:29;;;;;;;11.80;4.00;;;30.50;99.90;;;;;;1871095;74;21150;-76
2023/06/17 02:44:00;;;;;;;14.03;4.85;;;30.50;99.90;;;;;;1864625;75;21139;-73
2023/06/17 02:46:32;;;;;;;18.57;5.33;;;30.60;99.90;;;;;;1847504;76;21091;-74
2023/06/17 02:49:03;;;;;;;17.35;5.55;;;30.60;99.90;;;;;;1826530;77;21142;-75
2023/06/17 02:51:35;;;;;;;13.22;5.10;;;30.60;99.90;;;;;;1840403;76;21083;-76
2023/06/17 02:54:07;;;;;;;6.95;4.00;;;30.50;99.90;;;;;;1799599;77;21131;-76
2023/06/17 02:56:38;;;;;;;7.70;4.10;;;30.60;99.90;;;;;;1801634;79;21690;-75
2023/06/17 02:59:11;;;;;;;10.88;4.45;;;30.60;99.90;;;;;;1858768;75;21660;-76
2023/06/17 03:01:43;;;;;;;15.65;4.80;;;30.60;99.90;;;;;;1841441;77;21076;-76
2023/06/17 03:04:20;;;;;;;21.42;6.33;;;30.60;99.90;;;;;;1867238;75;21167;-76
2023/06/17 03:06:51;;;;;;;16.17;4.53;;;30.60;99.90;;;;;;1870243;75;21130;-75
2023/06/17 03:09:31;;;;;;;8.23;3.60;;;30.60;99.90;;;;;;1868690;75;21107;-76
2023/06/17 03:12:06;;;;;;;9.48;3.85;;;30.60;99.90;;;;;;1840251;76;21217;-75
2023/06/17 03:14:40;;;;;;;16.65;4.30;;;30.60;99.90;;;;;;1808133;77;21158;-75
2023/06/17 03:17:14;;;;;;;11.03;5.25;;;30.60;99.90;;;;;;1844973;77;21244;-74
2023/06/17 03:19:47;;;;;;;8.18;4.10;;;30.60;99.90;;;;;;1791270;79;21579;-74
2023/06/17 03:22:21;;;;;;;10.10;4.90;;;30.60;99.90;;;;;;1854668;76;21079;-75
2023/06/17 03:24:52;;;;;;;8.05;4.10;;;30.60;99.90;;;;;;1866910;76;21146;-74
2023/06/17 03:27:25;;;;;;;11.60;4.40;;;30.70;99.90;;;;;;1880077;74;21068;-76
2023/06/17 03:29:57;;;;;;;6.15;3.70;;;30.70;99.90;;;;;;1868834;75;21226;-76
2023/06/17 03:32:29;;;;;;;8.08;3.65;;;30.90;99.90;;;;;;1864459;76;21073;-76
2023/06/17 03:35:02;;;;;;;10.23;4.67;;;31.00;99.90;;;;;;1810865;79;21641;-77
2023/06/17 03:37:34;;;;;;;9.25;3.72;;;31.20;99.90;;;;;;1778142;80;21169;-76
2023/06/17 03:40:08;;;;;;;7.92;3.60;;;31.40;99.90;;;;;;1812428;78;22104;-76
2023/06/17 03:42:41;;;;;;;11.60;4.45;;;31.50;99.90;;;;;;1819600;78;21122;-76
2023/06/17 03:45:15;;;;;;;18.87;5.60;;;31.50;99.90;;;;;;1859681;75;21150;-75
2023/06/17 03:47:46;;;;;;;15.15;4.42;;;31.50;99.90;;;;;;1892798;75;21060;-76
2023/06/17 03:50:18;;;;;;;14.63;4.00;;;31.60;99.90;;;;;;1857611;75;21139;-75
2023/06/17 03:52:51;;;;;;;87.57;10.98;;;31.70;99.90;;;;;;1872395;76;21142;-75
2023/06/17 03:55:27;;;;;;;14.70;4.22;;;31.80;99.90;;;;;;1861454;75;21173;-75
2023/06/17 03:58:02;;;;;;;10.25;3.70;;;32.00;99.90;;;;;;1853271;76;21135;-73
2023/06/17 04:00:36;;;;;;;11.48;4.70;;;32.00;99.90;;;;;;1846266;77;21586;-75
2023/06/17 04:03:12;;;;;;;10.58;4.20;;;32.10;99.90;;;;;;1800289;77;21244;-77
2023/06/17 04:05:44;;;;;;;8.95;4.15;;;32.20;99.90;;;;;;1833506;77;21097;-76
2023/06/17 04:08:18;;;;;;;5.60;3.60;;;32.20;99.90;;;;;;1830041;77;21119;-74
2023/06/17 04:10:49;;;;;;;8.43;3.60;;;32.30;99.70;;;;;;1839053;77;21052;-76
2023/06/17 04:13:20;;;;;;;6.78;3.70;;;32.40;99.30;;;;;;1823306;77;21206;-73
2023/06/17 04:15:52;;;;;;;8.83;3.15;;;32.50;99.70;;;;;;1832699;77;21086;-80
2023/06/17 04:18:28;;;;;;;11.23;3.87;;;32.50;99.50;;;;;;1840719;78;21165;-77
2023/06/17 04:20:59;;;;;;;10.28;3.45;;;32.60;98.90;;;;;;1809064;79;21106;-82
2023/06/17 04:23:36;;;;;;;7.80;3.37;;;32.70;98.70;;;;;;1861536;76;21233;-80
2023/06/17 04:26:13;;;;;;;10.30;3.42;;;32.80;98.30;;;;;;1870112;76;21173;-78
2023/06/17 04:28:44;;;;;;;8.33;3.25;;;32.80;98.30;;;;;;1871032;76;21204;-80
2023/06/17 04:31:15;;;;;;;17.07;5.25;;;32.80;98.30;;;;;;1840488;77;21150;-82
2023/06/17 04:33:49;;;;;;;21.97;5.62;;;32.70;98.30;;;;;;1817185;78;21114;-80
2023/06/17 04:36:25;;;;;;;20.30;5.45;;;32.70;98.10;;;;;;1810209;79;21087;-80
2023/06/17 04:38:56;;;;;;;15.05;4.72;;;32.70;98.40;;;;;;1841478;77;21138;-78
2023/06/17 04:41:32;;;;;;;16.42;5.40;;;32.70;98.10;;;;;;1871491;76;21193;-80
2023/06/17 04:44:04;;;;;;;16.42;4.78;;;32.60;98.20;;;;;;1861958;76;21136;-78
2023/06/17 04:46:36;;;;;;;11.12;3.35;;;32.60;98.00;;;;;;1845516;77;21194;-78
2023/06/17 04:49:13;;;;;;;8.65;3.92;;;32.60;97.80;;;;;;1844570;77;21100;-79
2023/06/17 04:51:52;;;;;;;9.20;3.37;;;32.60;98.10;;;;;;1845401;76;21142;-79
2023/06/17 04:54:24;;;;;;;11.38;3.55;;;32.70;98.00;;;;;;1860144;76;21099;-80
2023/06/17 04:56:57;;;;;;;16.10;3.58;;;32.80;98.10;;;;;;1853928;76;21163;-81
2023/06/17 04:59:34;;;;;;;10.70;3.98;;;32.80;98.10;;;;;;1852697;76;21604;-80
2023/06/17 05:02:10;;;;;;;5.62;3.25;;;32.80;98.10;;;;;;1866768;76;21151;-81
2023/06/17 05:04:43;;;;;;;9.30;3.45;;;32.90;98.30;;;;;;1849392;78;21107;-77
2023/06/17 05:07:17;;;;;;;5.40;3.20;;;33.00;98.20;;;;;;1848256;78;21123;-80
2023/06/17 05:09:51;;;;;;;6.15;2.92;;;33.00;98.00;;;;;;1855809;76;21108;-78
2023/06/17 05:12:24;;;;;;;6.85;3.35;;;33.10;97.00;;;;;;1862062;77;21143;-78
2023/06/17 05:14:55;;;;;;;8.65;3.67;;;33.20;97.20;;;;;;1862072;77;21558;-80
2023/06/17 05:17:28;;;;;;;7.92;3.45;;;33.30;97.00;;;;;;1861813;77;21085;-81
2023/06/17 05:20:05;;;;;;;4.95;3.22;;;33.30;96.70;;;;;;1847081;76;21064;-80
2023/06/17 05:22:38;;;;;;;5.37;2.92;;;33.30;96.50;;;;;;1853758;76;21601;-80
2023/06/17 05:25:14;;;;;;;9.13;3.58;;;33.40;97.10;;;;;;1844637;78;21177;-79
2023/06/17 05:28:10;;;;;;;6.55;3.25;;;33.50;97.00;;;;;;1836855;78;21691;-78
2023/06/17 05:30:43;;;;;;;5.08;3.47;;;33.60;96.40;;;;;;1844293;76;21742;-79
2023/06/17 05:33:11;;;;;;;5.65;3.12;;;33.70;96.40;;;;;;1852983;76;21129;-79
2023/06/17 05:35:47;;;;;;;7.35;3.58;;;33.70;96.00;;;;;;1825025;76;21098;-80
2023/06/17 05:38:24;;;;;;;7.58;3.25;;;33.80;95.40;;;;;;1855004;76;22320;-80
2023/06/17 05:40:57;;;;;;;8.28;3.70;;;33.80;95.30;;;;;;1847870;78;21131;-80
2023/06/17 05:43:32;;;;;;;4.78;3.45;;;33.90;95.50;;;;;;1851771;76;21092;-78
2023/06/17 05:46:10;;;;;;;14.53;5.47;;;33.90;94.80;;;;;;1864712;76;21188;-79
2023/06/17 05:48:45;;;;;;;8.83;4.35;;;33.90;95.60;;;;;;1854270;76;21237;-79
2023/06/17 05:51:22;;;;;;;9.43;4.65;;;34.00;94.50;;;;;;1850795;76;21159;-78
2023/06/17 05:53:56;;;;;;;6.85;4.30;;;33.90;94.50;;;;;;1861247;76;21491;-79
2023/06/17 05:56:27;;;;;;;8.75;4.65;;;34.00;95.20;;;;;;1866085;75;21084;-78
2023/06/17 05:59:01;;;;;;;6.15;3.40;;;34.00;95.00;;;;;;1874333;75;21221;-80
2023/06/17 06:01:32;;;;;;;5.35;2.85;;;33.90;94.90;;;;;;1862215;76;21211;-79
2023/06/17 06:04:06;;;;;;;6.92;2.85;;;33.80;94.60;;;;;;1866209;75;21085;-77
2023/06/17 06:06:38;;;;;;;11.63;3.72;;;33.80;94.30;;;;;;1853772;76;21167;-76
2023/06/17 06:09:12;;;;;;;6.12;3.22;;;33.70;94.70;;;;;;1814568;77;21120;-78
2023/06/17 06:11:46;;;;;;;10.23;3.77;;;33.60;95.10;;;;;;1882936;75;21158;-77
2023/06/17 06:14:18;;;;;;;16.52;4.05;;;33.60;95.00;;;;;;1878422;74;21513;-80
2023/06/17 06:16:50;;;;;;;16.12;4.20;;;33.60;95.60;;;;;;1880524;75;21132;-76
2023/06/17 06:19:24;;;;;;;8.70;3.75;;;33.50;95.80;;;;;;1850126;76;21068;-79
2023/06/17 06:21:55;;;;;;;6.25;3.40;;;33.60;95.30;;;;;;1843208;76;21144;-79
2023/06/17 06:24:33;;;;;;;10.38;3.40;;;33.50;94.90;;;;;;1880416;75;21180;-80
2023/06/17 06:27:08;;;;;;;16.67;4.33;;;33.50;94.20;;;;;;1866538;76;21057;-81
2023/06/17 06:29:39;;;;;;;14.45;4.62;;;33.50;95.20;;;;;;1864221;76;21197;-76
2023/06/17 06:32:13;;;;;;;11.15;3.70;;;33.40;94.70;;;;;;1864249;77;21108;-75
2023/06/17 06:34:49;;;;;;;17.98;4.53;;;33.40;94.70;;;;;;1857677;76;21603;-76
2023/06/17 06:37:20;;;;;;;13.48;3.47;;;33.30;94.90;;;;;;1866450;75;21178;-78
2023/06/17 06:39:51;;;;;;;8.58;3.52;;;33.30;95.10;;;;;;1846498;76;21185;-78
2023/06/17 06:42:25;;;;;;;10.55;3.45;;;33.30;95.30;;;;;;1876786;75;21234;-77
2023/06/17 06:45:00;;;;;;;8.75;2.83;;;33.30;94.90;;;;;;1871293;75;21083;-78
2023/06/17 06:47:34;;;;;;;8.75;3.10;;;33.30;95.00;;;;;;1872517;75;21055;-77
2023/06/17 06:50:07;;;;;;;8.25;3.40;;;33.40;95.00;;;;;;1868079;74;21131;-81
2023/06/17 06:52:40;;;;;;;8.05;3.22;;;33.50;95.10;;;;;;1815083;76;21159;-79
2023/06/17 06:55:11;;;;;;;5.70;3.22;;;33.50;94.40;;;;;;1805703;78;21104;-79
2023/06/17 06:57:42;;;;;;;14.70;4.72;;;33.60;94.40;;;;;;1826913;76;21076;-77
2023/06/17 07:00:17;;;;;;;9.90;3.12;;;33.60;94.50;;;;;;1836505;76;21134;-78
2023/06/17 07:02:49;;;;;;;6.85;2.75;;;33.70;93.80;;;;;;1864207;75;21112;-83
2023/06/17 07:05:28;;;;;;;8.88;4.40;;;33.70;93.70;;;;;;1839304;76;21173;-79
2023/06/17 07:08:07;;;;;;;20.72;4.20;;;33.80;93.70;;;;;;1864471;75;21110;-79
2023/06/17 07:10:39;;;;;;;10.08;3.52;;;33.80;94.20;;;;;;1861542;75;21229;-76
2023/06/17 07:13:13;;;;;;;10.35;4.60;;;33.80;93.40;;;;;;1849217;76;21185;-79
2023/06/17 07:15:49;;;;;;;30.20;6.03;;;33.80;93.90;;;;;;1857830;75;21170;-81
2023/06/17 07:18:22;;;;;;;32.17;5.50;;;33.80;94.60;;;;;;1872320;75;21139;-81
2023/06/17 07:20:55;;;;;;;21.05;4.70;;;33.70;94.10;;;;;;1866186;74;21064;-83
2023/06/17 07:23:29;;;;;;;21.10;5.65;;;33.70;94.30;;;;;;1873353;75;21091;-81
2023/06/17 07:26:06;;;;;;;8.73;3.05;;;33.60;94.10;;;;;;1840484;76;21163;-82
2023/06/17 07:28:38;;;;;;;8.10;4.17;;;33.60;94.10;;;;;;1841230;76;21325;-83
2023/06/17 07:31:15;;;;;;;7.10;3.15;;;33.60;94.40;;;;;;1813636;78;21190;-75
2023/06/17 07:33:49;;;;;;;276.67;24.32;;;33.50;94.20;;;;;;1836053;76;21110;-75
2023/06/17 07:36:21;;;;;;;47.83;5.55;;;33.40;94.00;;;;;;1862480;74;21128;-84
2023/06/17 07:38:59;;;;;;;18.02;2.70;;;33.20;93.40;;;;;;1828017;76;21128;-81
2023/06/17 07:41:36;;;;;;;22.93;3.00;;;33.00;93.20;;;;;;1860143;74;21128;-82
2023/06/17 07:44:09;;;;;;;22.90;3.05;;;32.70;93.60;;;;;;1867677;75;21706;-83
2023/06/17 07:46:46;;;;;;;22.75;3.40;;;32.30;94.60;;;;;;1838194;76;21139;-77
2023/06/17 07:49:20;;;;;;;56.65;7.70;;;32.00;96.70;;;;;;1808284;77;21129;-79
2023/06/17 07:51:52;;;;;;;25.88;5.15;;;31.50;97.80;;;;;;1807636;77;21159;-79
2023/06/17 07:54:25;;;;;;;26.40;4.35;;;31.10;99.10;;;;;;1834645;76;21142;-82
2023/06/17 07:56:58;;;;;;;10.50;2.83;;;30.60;99.70;;;;;;1848934;77;21096;-84
2023/06/17 07:59:31;;;;;;;18.85;2.95;;;30.20;99.90;;;;;;1853662;75;21111;-82
2023/06/17 08:02:02;;;;;;;10.63;3.30;;;29.90;99.90;;;;;;1822265;76;21146;-77
2023/06/17 08:04:37;;;;;;;7.83;2.70;;;29.70;99.90;;;;;;1835264;75;21151;-78
2023/06/17 08:07:13;;;;;;;8.53;2.77;;;29.50;99.90;;;;;;1861765;75;21171;-75
2023/06/17 08:09:45;;;;;;;8.88;2.47;;;29.30;99.90;;;;;;1863030;75;21147;-78
2023/06/17 08:12:20;;;;;;;;;;;;;;;;;;1839216;77;21158;-80
2023/06/17 08:14:56;;;;;;;5.72;2.22;;;29.10;99.90;;;;;;1808444;77;20193;-78
2023/06/17 08:17:33;;;;;;;4.85;2.42;;;29.00;99.90;;;;;;1830363;76;21154;-79
2023/06/17 08:20:07;;;;;;;10.00;4.15;;;29.00;99.90;;;;;;1866439;75;21531;-81
2023/06/17 08:22:40;;;;;;;7.25;3.00;;;28.90;99.90;;;;;;1869235;74;21162;-78
2023/06/17 08:25:17;;;;;;;5.03;2.37;;;28.90;99.90;;;;;;1846245;78;21217;-80
2023/06/17 08:27:50;;;;;;;3.72;1.98;;;28.90;99.90;;;;;;1862890;74;21636;-80
2023/06/17 08:30:25;;;;;;;6.67;2.67;;;28.90;99.90;;;;;;1864209;75;21084;-80
2023/06/17 08:33:03;;;;;;;4.85;2.47;;;29.00;99.90;;;;;;1855050;76;21177;-79
2023/06/17 08:35:37;;;;;;;4.17;1.95;;;29.00;99.90;;;;;;1868678;76;21523;-76
2023/06/17 08:38:08;;;;;;;4.83;2.60;;;29.00;99.90;;;;;;1870567;76;21667;-79
2023/06/17 08:40:41;;;;;;;6.78;2.72;;;28.90;99.90;;;;;;1864415;75;21212;-78
2023/06/17 08:43:22;;;;;;;6.28;2.10;;;28.90;99.90;;;;;;1857265;76;21171;-77
2023/06/17 08:46:08;;;;;;;5.90;2.02;;;28.90;99.90;;;;;;1855425;75;21198;-79
2023/06/17 08:48:41;;;;;;;4.72;2.08;;;28.80;99.90;;;;;;1877657;75;21168;-78
2023/06/17 08:51:14;;;;;;;6.47;2.22;;;28.80;99.90;;;;;;1868343;75;21135;-80
2023/06/17 08:53:50;;;;;;;7.05;2.70;;;28.80;99.90;;;;;;1858089;74;21158;-78
2023/06/17 08:56:24;;;;;;;5.28;2.55;;;28.80;99.90;;;;;;1850672;75;21190;-79
2023/06/17 08:58:56;;;;;;;5.95;2.52;;;28.80;99.90;;;;;;1856229;75;21142;-79
2023/06/17 09:01:29;;;;;;;8.05;3.00;;;28.80;99.90;;;;;;1866956;75;21131;-80
2023/06/17 09:04:04;;;;;;;21.80;11.73;;;28.70;99.90;;;;;;1867407;74;21080;-79
2023/06/17 09:06:37;;;;;;;19.23;8.48;;;28.70;99.90;;;;;;1864832;75;21151;-78
2023/06/17 09:09:13;;;;;;;6.10;3.47;;;28.80;99.90;;;;;;1877071;76;21129;-79
2023/06/17 09:11:53;;;;;;;9.38;2.90;;;28.80;99.90;;;;;;1873282;75;21150;-79
2023/06/17 09:14:28;;;;;;;8.38;3.35;;;28.80;99.90;;;;;;1865385;75;21130;-78
2023/06/17 09:17:01;;;;;;;8.78;3.40;;;28.90;99.90;;;;;;1863408;75;21127;-78
2023/06/17 09:19:34;;;;;;;7.42;3.37;;;28.90;99.90;;;;;;1845018;77;21109;-79
2023/06/17 09:22:08;;;;;;;8.08;3.58;;;29.00;99.90;;;;;;1870527;74;21244;-77
2023/06/17 09:24:43;;;;;;;9.08;4.70;;;29.00;99.90;;;;;;1854164;75;21211;-77
2023/06/17 09:27:26;;;;;;;6.53;4.72;;;29.10;99.90;;;;;;1866109;75;21238;-79
2023/06/17 09:30:15;;;;;;;17.27;9.03;;;29.10;99.90;;;;;;1798702;77;21110;-78
2023/06/17 09:32:51;;;;;;;13.18;8.08;;;29.10;99.90;;;;;;1861503;75;21175;-79
2023/06/17 09:35:22;;;;;;;12.63;6.65;;;29.20;99.90;;;;;;1855495;76;21178;-79
2023/06/17 09:37:56;;;;;;;13.85;6.03;;;29.20;99.90;;;;;;1851668;76;21183;-78
2023/06/17 09:40:42;;;;;;;16.82;10.70;;;29.20;99.90;;;;;;1855171;76;21128;-78
2023/06/17 09:43:14;;;;;;;17.02;10.25;;;29.30;99.90;;;;;;1853515;76;21180;-79
2023/06/17 09:45:50;;;;;;;17.15;10.53;;;29.30;99.90;;;;;;1848509;76;21100;-78
2023/06/17 09:48:30;;;;;;;17.50;10.75;;;29.30;99.90;;;;;;1851849;76;21135;-79
2023/06/17 09:51:00;;;;;;;24.02;13.60;;;29.30;99.90;;;;;;1854111;76;21053;-78
2023/06/17 09:53:32;;;;;;;28.12;16.35;;;29.40;99.90;;;;;;1854173;76;21161;-79
2023/06/17 09:56:10;;;;;;;22.60;14.40;;;29.40;99.90;;;;;;1847631;76;21752;-79
2023/06/17 09:58:44;;;;;;;22.37;12.25;;;29.40;99.90;;;;;;1856197;76;22217;-77
2023/06/17 10:01:19;;;;;;;16.77;9.80;;;29.40;99.90;;;;;;1871466;76;21141;-78
2023/06/17 10:03:53;;;;;;;14.03;7.22;;;29.50;99.90;;;;;;1860435;76;21877;-80
2023/06/17 10:06:27;;;;;;;11.30;7.00;;;29.50;99.90;;;;;;1856657;76;21170;-78
2023/06/17 10:08:59;;;;;;;11.83;7.12;;;29.50;99.90;;;;;;1861283;76;21116;-79
2023/06/17 10:11:34;;;;;;;10.35;5.50;;;29.50;99.90;;;;;;1855657;76;21135;-79
2023/06/17 10:14:32;;;;;;;8.13;4.55;;;29.50;99.90;;;;;;1859081;75;21277;-79
2023/06/17 10:17:07;;;;;;;14.63;7.53;;;29.50;99.90;;;;;;1854094;77;21096;-79
2023/06/17 10:19:41;;;;;;;17.87;10.08;;;29.50;99.90;;;;;;1859522;76;21155;-77
2023/06/17 10:22:16;;;;;;;18.77;10.78;;;29.50;99.90;;;;;;1873045;76;21088;-77
2023/06/17 10:24:49;;;;;;;15.88;10.53;;;29.50;99.90;;;;;;1853273;77;21061;-77
2023/06/17 10:27:22;;;;;;;14.15;8.25;;;29.50;99.90;;;;;;1840163;76;21166;-79
2023/06/17 10:29:58;;;;;;;11.85;7.03;;;29.50;99.90;;;;;;1841241;75;21131;-77
2023/06/17 10:32:30;;;;;;;13.22;6.42;;;29.50;99.90;;;;;;1853334;75;21123;-80
2023/06/17 10:35:11;;;;;;;11.83;6.47;;;29.50;99.90;;;;;;1866281;74;21657;-78
2023/06/17 10:37:46;;;;;;;11.57;6.37;;;29.50;99.90;;;;;;1825517;76;21273;-77
2023/06/17 10:40:23;;;;;;;11.30;5.65;;;29.40;99.90;;;;;;1863327;75;21236;-77
2023/06/17 10:43:01;;;;;;;10.53;4.08;;;29.40;99.90;;;;;;1848630;75;21190;-77
2023/06/17 10:45:34;;;;;;;8.58;3.90;;;29.40;99.90;;;;;;1825924;76;21258;-76
2023/06/17 10:48:25;;;;;;;4.75;3.50;;;29.30;99.90;;;;;;1848430;75;21071;-77
2023/06/17 10:50:59;;;;;;;7.47;3.85;;;29.30;99.90;;;;;;1869092;75;21159;-77
2023/06/17 10:53:32;;;;;;;7.25;4.25;;;29.30;99.90;;;;;;1850911;75;21174;-80
2023/06/17 10:56:10;;;;;;;9.28;5.12;;;29.30;99.90;;;;;;1852000;75;21654;-77
2023/06/17 10:58:48;;;;;;;11.70;6.10;;;29.30;99.90;;;;;;1812678;77;21139;-74
2023/06/17 11:01:21;;;;;;;13.25;7.75;;;29.30;99.90;;;;;;1803371;77;21171;-82
2023/06/17 11:03:53;;;;;;;15.93;7.55;;;29.30;99.90;;;;;;1856200;75;21100;-78
2023/06/17 11:06:28;;;;;;;15.58;7.72;;;29.30;99.90;;;;;;1801144;78;21118;-75
2023/06/17 11:09:12;;;;;;;15.98;7.75;;;29.20;99.90;;;;;;1805116;78;21245;-77
2023/06/17 11:11:43;;;;;;;13.28;6.95;;;29.20;99.90;;;;;;1856648;76;21127;-79
2023/06/17 11:14:19;;;;;;;11.22;6.28;;;29.20;99.90;;;;;;1862796;76;21080;-77
2023/06/17 11:16:51;;;;;;;8.30;4.28;;;29.10;99.90;;;;;;1847640;76;21565;-80
2023/06/17 11:19:23;;;;;;;8.30;3.60;;;29.10;99.90;;;;;;1851089;76;21233;-80
2023/06/17 11:22:03;;;;;;;7.75;4.20;;;29.10;99.90;;;;;;1845212;76;21219;-80
2023/06/17 11:24:32;;;;;;;6.22;3.55;;;29.10;99.90;;;;;;1847543;78;21144;-80
2023/06/17 11:27:05;;;;;;;10.15;4.22;;;29.10;99.90;;;;;;1851150;76;21597;-79
2023/06/17 11:29:38;;;;;;;9.23;3.55;;;29.00;99.90;;;;;;1788972;78;21182;-79
2023/06/17 11:32:11;;;;;;;7.97;4.00;;;29.00;99.90;;;;;;1806997;78;21170;-78
2023/06/17 11:34:42;;;;;;;11.10;4.85;;;29.00;99.90;;;;;;1817678;77;21083;-78
2023/06/17 11:37:16;;;;;;;10.70;4.87;;;28.90;99.90;;;;;;1814736;79;21163;-80
2023/06/17 11:39:47;;;;;;;9.53;4.03;;;28.90;99.90;;;;;;1827977;77;21675;-78
2023/06/17 11:42:18;;;;;;;6.87;4.20;;;28.90;99.90;;;;;;1881232;76;21080;-80
2023/06/17 11:44:50;;;;;;;7.60;4.08;;;28.90;99.90;;;;;;1852489;75;21199;-78
2023/06/17 11:47:33;;;;;;;9.38;4.28;;;28.90;99.90;;;;;;1789670;78;21097;-78
2023/06/17 11:50:11;;;;;;;10.20;6.15;;;28.90;99.90;;;;;;1858247;77;21198;-79
2023/06/17 11:52:55;;;;;;;7.87;4.35;;;28.90;99.90;;;;;;1779379;80;21129;-78
2023/06/17 11:55:35;;;;;;;8.83;4.28;;;28.90;99.90;;;;;;1851363;76;21143;-77
2023/06/17 11:58:23;;;;;;;11.55;4.70;;;28.90;99.90;;;;;;1848188;77;21137;-79
2023/06/17 12:00:56;;;;;;;9.23;4.72;;;28.90;99.90;;;;;;1853072;76;21151;-78
2023/06/17 12:03:31;;;;;;;7.47;4.30;;;28.90;99.90;;;;;;1867477;76;21126;-80
2023/06/17 12:06:03;;;;;;;8.78;4.65;;;28.90;99.90;;;;;;1857315;76;21166;-78
2023/06/17 12:08:37;;;;;;;7.10;4.25;;;28.80;99.90;;;;;;1839986;75;21197;-79
2023/06/17 12:11:11;;;;;;;6.70;4.10;;;28.80;99.90;;;;;;1851019;76;21199;-77
2023/06/17 12:13:44;;;;;;;8.13;4.17;;;28.80;99.90;;;;;;1839476;76;21162;-77
2023/06/17 12:16:27;;;;;;;9.43;3.55;;;28.80;99.90;;;;;;1852124;76;21140;-77
2023/06/17 12:19:03;;;;;;;9.73;4.45;;;28.80;99.90;;;;;;1848265;76;21692;-77
2023/06/17 12:21:36;;;;;;;7.08;3.70;;;28.80;99.90;;;;;;1814315;77;21096;-77
2023/06/17 12:24:10;;;;;;;6.03;3.98;;;28.80;99.90;;;;;;1858966;75;21130;-80
2023/06/17 12:26:41;;;;;;;8.63;4.28;;;28.80;99.90;;;;;;1870463;75;21597;-75
2023/06/17 12:29:15;;;;;;;9.48;5.10;;;28.80;99.90;;;;;;1856037;76;21150;-77
2023/06/17 12:31:51;;;;;;;8.20;4.60;;;28.80;99.90;;;;;;1790651;77;22433;-78
2023/06/17 12:34:23;;;;;;;8.10;4.80;;;28.80;99.90;;;;;;1848663;76;21121;-78
2023/06/17 12:37:03;;;;;;;8.15;4.97;;;28.80;99.90;;;;;;1843028;76;21229;-78
2023/06/17 12:39:37;;;;;;;9.10;5.20;;;28.80;99.90;;;;;;1794115;79;21175;-78
2023/06/17 12:42:13;;;;;;;6.55;4.30;;;28.80;99.90;;;;;;1868128;75;21185;-77
2023/06/17 12:44:44;;;;;;;10.78;5.03;;;28.80;99.90;;;;;;1845496;76;21526;-78
2023/06/17 12:47:16;;;;;;;7.40;4.75;;;28.80;99.90;;;;;;1823922;77;21680;-79
2023/06/17 12:49:49;;;;;;;7.67;4.75;;;28.90;99.90;;;;;;1816483;77;21240;-80
2023/06/17 12:52:23;;;;;;;8.33;5.25;;;28.90;99.90;;;;;;1848390;76;21191;-78
2023/06/17 12:55:04;;;;;;;8.93;5.03;;;28.80;99.90;;;;;;1810204;77;21643;-78
2023/06/17 12:57:52;;;;;;;10.65;5.30;;;28.90;99.90;;;;;;1854669;75;21249;-78
2023/06/17 13:00:27;;;;;;;9.28;5.03;;;28.90;99.90;;;;;;1839361;76;21675;-78
2023/06/17 13:02:59;;;;;;;8.25;5.20;;;28.90;99.90;;;;;;1815251;77;21091;-79
2023/06/17 13:05:31;;;;;;;8.93;5.67;;;28.80;99.90;;;;;;1823989;77;21885;-79
2023/06/17 13:08:07;;;;;;;7.42;5.20;;;28.80;99.90;;;;;;1819307;76;21162;-78
2023/06/17 13:10:40;;;;;;;9.50;5.03;;;28.80;99.90;;;;;;1846462;74;21245;-77
2023/06/17 13:13:11;;;;;;;7.92;4.62;;;28.80;99.90;;;;;;1845834;76;21204;-76
2023/06/17 13:15:42;;;;;;;8.75;5.08;;;28.80;99.90;;;;;;1848028;76;21120;-79
2023/06/17 13:18:15;;;;;;;8.73;5.08;;;28.80;99.90;;;;;;1849932;75;21116;-80
2023/06/17 13:20:46;;;;;;;9.85;5.03;;;28.80;99.90;;;;;;1847182;75;21083;-82